ADDS - METARS form results

Aviation Digital Data Service (ADDS)

Output produced by METARs form (1217 UTC 24 September 2020)
found at http://aviationweather.gov/metar/data/
 
METAR text: KJOT 241155Z AUTO 00000KT M1/4SM FG OVC007 10/10 A2999 RMK AO2 T01010099 10127 20101
Conditions at: KJOT (JOLIET , IL, US) observed 1155 UTC 24 September 2020
Temperature: 10.1°C (50°F)
Dewpoint: 9.9°C (50°F) [RH = 99%]
Pressure (altimeter): 29.99 inches Hg (1015.7 mb)
Winds: calm
Visibility: 0.25 miles (0.40 km)
Ceiling: 700 feet AGL
Clouds: overcast cloud deck at 700 feet AGL
Weather: FG  (fog)

METAR text: KJOT 241135Z AUTO 00000KT 5SM BR CLR 12/12 A2998 RMK AO2 T01230122
Conditions at: KJOT (JOLIET , IL, US) observed 1135 UTC 24 September 2020
Temperature: 12.3°C (54°F)
Dewpoint: 12.2°C (54°F) [RH = 99%]
Pressure (altimeter): 29.98 inches Hg (1015.3 mb)
Winds: calm
Visibility: 5 miles ( 8 km)
Ceiling: at least 12,000 feet AGL
Clouds: sky clear below 12,000 feet AGL
Weather: BR  (mist)